sensor_id;sensor_type;location;lat;lon;timestamp;pressure;altitude;pressure_sealevel;temperature;humidity
24160;BME280;62385;41.594;23.808;2023-07-28T00:01:56;95458.09;;;15.31;51.98
24160;BME280;62385;41.594;23.808;2023-07-28T00:04:22;95468.97;;;15.29;52.49
24160;BME280;62385;41.594;23.808;2023-07-28T00:06:49;95468.31;;;15.20;53.26
24160;BME280;62385;41.594;23.808;2023-07-28T00:09:14;95465.94;;;15.45;52.12
24160;BME280;62385;41.594;23.808;2023-07-28T00:11:40;95465.00;;;15.12;53.29
24160;BME280;62385;41.594;23.808;2023-07-28T00:14:06;95477.41;;;14.85;54.25
24160;BME280;62385;41.594;23.808;2023-07-28T00:16:31;95473.09;;;14.84;54.38
24160;BME280;62385;41.594;23.808;2023-07-28T00:18:56;95474.44;;;15.08;53.73
24160;BME280;62385;41.594;23.808;2023-07-28T00:21:22;95467.25;;;14.67;55.43
24160;BME280;62385;41.594;23.808;2023-07-28T00:23:48;95468.97;;;14.82;54.68
24160;BME280;62385;41.594;23.808;2023-07-28T00:26:13;95466.13;;;14.90;53.77
24160;BME280;62385;41.594;23.808;2023-07-28T00:28:39;95473.75;;;14.86;54.05
24160;BME280;62385;41.594;23.808;2023-07-28T00:31:04;95462.66;;;14.96;53.66
24160;BME280;62385;41.594;23.808;2023-07-28T00:33:30;95472.34;;;14.97;52.94
24160;BME280;62385;41.594;23.808;2023-07-28T00:35:56;95478.00;;;15.21;52.72
24160;BME280;62385;41.594;23.808;2023-07-28T00:38:21;95473.91;;;14.85;54.41
24160;BME280;62385;41.594;23.808;2023-07-28T00:40:47;95471.22;;;14.78;55.05
24160;BME280;62385;41.594;23.808;2023-07-28T00:43:12;95485.69;;;14.62;54.92
24160;BME280;62385;41.594;23.808;2023-07-28T00:45:39;95495.78;;;14.60;55.19
24160;BME280;62385;41.594;23.808;2023-07-28T00:48:12;95491.16;;;14.48;55.29
24160;BME280;62385;41.594;23.808;2023-07-28T00:50:44;95483.69;;;14.71;54.66
24160;BME280;62385;41.594;23.808;2023-07-28T00:53:11;95484.69;;;14.63;54.56
24160;BME280;62385;41.594;23.808;2023-07-28T00:55:38;95488.16;;;14.57;54.90
24160;BME280;62385;41.594;23.808;2023-07-28T00:58:03;95494.69;;;14.55;55.04
24160;BME280;62385;41.594;23.808;2023-07-28T01:00:29;95490.75;;;14.51;54.50
24160;BME280;62385;41.594;23.808;2023-07-28T01:02:57;95487.28;;;14.85;53.32
24160;BME280;62385;41.594;23.808;2023-07-28T01:05:28;95477.59;;;14.77;54.07
24160;BME280;62385;41.594;23.808;2023-07-28T01:08:12;95494.97;;;15.01;53.86
24160;BME280;62385;41.594;23.808;2023-07-28T01:10:38;95483.00;;;14.90;55.14
24160;BME280;62385;41.594;23.808;2023-07-28T01:13:04;95488.38;;;14.97;54.83
24160;BME280;62385;41.594;23.808;2023-07-28T01:15:30;95477.88;;;14.95;54.58
24160;BME280;62385;41.594;23.808;2023-07-28T01:17:55;95492.38;;;14.79;54.95
24160;BME280;62385;41.594;23.808;2023-07-28T01:20:24;95487.53;;;14.34;56.18
24160;BME280;62385;41.594;23.808;2023-07-28T01:28:27;95507.72;;;13.94;57.18
24160;BME280;62385;41.594;23.808;2023-07-28T01:30:53;95495.78;;;14.11;56.58
24160;BME280;62385;41.594;23.808;2023-07-28T01:33:19;95485.56;;;14.21;55.72
24160;BME280;62385;41.594;23.808;2023-07-28T01:35:44;95497.34;;;14.27;57.01
24160;BME280;62385;41.594;23.808;2023-07-28T01:38:10;95494.25;;;14.51;55.12
24160;BME280;62385;41.594;23.808;2023-07-28T01:40:37;95487.09;;;14.30;56.99
24160;BME280;62385;41.594;23.808;2023-07-28T01:43:02;95498.94;;;14.00;57.17
24160;BME280;62385;41.594;23.808;2023-07-28T01:45:28;95497.47;;;13.76;57.43
24160;BME280;62385;41.594;23.808;2023-07-28T01:47:54;95492.41;;;13.81;57.72
24160;BME280;62385;41.594;23.808;2023-07-28T01:50:19;95486.25;;;13.81;57.65
24160;BME280;62385;41.594;23.808;2023-07-28T01:52:45;95483.63;;;13.45;59.12
24160;BME280;62385;41.594;23.808;2023-07-28T01:55:10;95493.16;;;13.97;58.22
24160;BME280;62385;41.594;23.808;2023-07-28T01:57:39;95500.16;;;13.98;57.67
24160;BME280;62385;41.594;23.808;2023-07-28T02:00:06;95505.06;;;13.94;56.73
24160;BME280;62385;41.594;23.808;2023-07-28T02:02:41;95513.94;;;14.22;58.01
24160;BME280;62385;41.594;23.808;2023-07-28T02:05:07;95508.28;;;14.11;57.71
24160;BME280;62385;41.594;23.808;2023-07-28T02:07:33;95508.34;;;13.96;58.35
24160;BME280;62385;41.594;23.808;2023-07-28T02:10:00;95509.44;;;14.02;58.54
24160;BME280;62385;41.594;23.808;2023-07-28T02:12:25;95493.72;;;14.13;59.42
24160;BME280;62385;41.594;23.808;2023-07-28T02:14:52;95499.75;;;14.01;60.30
24160;BME280;62385;41.594;23.808;2023-07-28T02:17:17;95492.84;;;14.06;59.99
24160;BME280;62385;41.594;23.808;2023-07-28T02:19:44;95510.69;;;14.06;59.50
24160;BME280;62385;41.594;23.808;2023-07-28T02:22:09;95517.31;;;13.88;59.31
24160;BME280;62385;41.594;23.808;2023-07-28T02:24:36;95528.38;;;13.85;58.34
24160;BME280;62385;41.594;23.808;2023-07-28T02:27:02;95537.50;;;13.76;58.73
24160;BME280;62385;41.594;23.808;2023-07-28T02:29:28;95537.34;;;13.27;59.69
24160;BME280;62385;41.594;23.808;2023-07-28T02:31:53;95537.78;;;13.02;60.32
24160;BME280;62385;41.594;23.808;2023-07-28T02:34:19;95536.59;;;12.89;60.53
24160;BME280;62385;41.594;23.808;2023-07-28T02:36:44;95543.56;;;13.05;60.15
24160;BME280;62385;41.594;23.808;2023-07-28T02:39:11;95537.16;;;13.29;59.26
24160;BME280;62385;41.594;23.808;2023-07-28T02:41:36;95534.03;;;13.25;58.82
24160;BME280;62385;41.594;23.808;2023-07-28T02:44:02;95545.44;;;13.19;59.44
24160;BME280;62385;41.594;23.808;2023-07-28T02:46:28;95539.00;;;13.14;59.72
24160;BME280;62385;41.594;23.808;2023-07-28T02:48:53;95543.38;;;12.92;60.49
24160;BME280;62385;41.594;23.808;2023-07-28T02:51:19;95551.19;;;12.93;60.21
24160;BME280;62385;41.594;23.808;2023-07-28T02:53:45;95548.81;;;12.69;60.87
24160;BME280;62385;41.594;23.808;2023-07-28T02:56:10;95565.66;;;13.14;59.74
24160;BME280;62385;41.594;23.808;2023-07-28T02:58:36;95559.38;;;12.77;61.01
24160;BME280;62385;41.594;23.808;2023-07-28T03:01:01;95558.97;;;12.51;61.41
24160;BME280;62385;41.594;23.808;2023-07-28T03:03:45;95557.25;;;12.58;61.19
24160;BME280;62385;41.594;23.808;2023-07-28T03:06:13;95557.53;;;12.78;60.52
24160;BME280;62385;41.594;23.808;2023-07-28T03:08:39;95558.28;;;13.01;59.72
24160;BME280;62385;41.594;23.808;2023-07-28T03:11:31;95557.66;;;13.14;59.06
24160;BME280;62385;41.594;23.808;2023-07-28T03:13:57;95566.16;;;12.80;60.24
24160;BME280;62385;41.594;23.808;2023-07-28T03:16:24;95563.50;;;12.80;60.22
24160;BME280;62385;41.594;23.808;2023-07-28T03:18:49;95575.44;;;12.84;60.48
24160;BME280;62385;41.594;23.808;2023-07-28T03:21:15;95584.94;;;13.01;60.16
24160;BME280;62385;41.594;23.808;2023-07-28T03:23:41;95578.72;;;12.71;60.62
24160;BME280;62385;41.594;23.808;2023-07-28T03:26:06;95572.47;;;12.64;61.15
24160;BME280;62385;41.594;23.808;2023-07-28T03:28:32;95577.94;;;12.71;60.74
24160;BME280;62385;41.594;23.808;2023-07-28T03:30:59;95568.16;;;12.48;61.53
24160;BME280;62385;41.594;23.808;2023-07-28T03:33:24;95551.28;;;12.71;60.23
24160;BME280;62385;41.594;23.808;2023-07-28T03:35:50;95586.09;;;12.69;60.81
24160;BME280;62385;41.594;23.808;2023-07-28T03:38:17;95573.22;;;12.58;60.94
24160;BME280;62385;41.594;23.808;2023-07-28T03:40:44;95575.66;;;12.82;60.29
24160;BME280;62385;41.594;23.808;2023-07-28T03:43:12;95573.06;;;12.74;59.97
24160;BME280;62385;41.594;23.808;2023-07-28T03:45:37;95573.28;;;12.87;59.79
24160;BME280;62385;41.594;23.808;2023-07-28T03:48:03;95574.75;;;12.53;61.22
24160;BME280;62385;41.594;23.808;2023-07-28T03:50:29;95587.75;;;12.85;59.51
24160;BME280;62385;41.594;23.808;2023-07-28T03:52:55;95582.72;;;12.75;60.21
24160;BME280;62385;41.594;23.808;2023-07-28T03:55:20;95581.63;;;12.99;59.43
24160;BME280;62385;41.594;23.808;2023-07-28T03:57:46;95594.38;;;12.89;60.16
24160;BME280;62385;41.594;23.808;2023-07-28T04:00:12;95583.34;;;12.92;60.49
24160;BME280;62385;41.594;23.808;2023-07-28T04:02:39;95592.59;;;13.19;59.60
24160;BME280;62385;41.594;23.808;2023-07-28T04:05:05;95596.78;;;12.99;60.57
24160;BME280;62385;41.594;23.808;2023-07-28T04:07:30;95590.16;;;13.09;60.09
24160;BME280;62385;41.594;23.808;2023-07-28T04:09:56;95595.50;;;13.09;60.35
24160;BME280;62385;41.594;23.808;2023-07-28T04:12:22;95602.16;;;13.28;59.72
24160;BME280;62385;41.594;23.808;2023-07-28T04:14:47;95595.72;;;13.37;60.30
24160;BME280;62385;41.594;23.808;2023-07-28T04:17:13;95607.16;;;13.81;58.92
24160;BME280;62385;41.594;23.808;2023-07-28T04:19:38;95599.59;;;13.85;58.66
24160;BME280;62385;41.594;23.808;2023-07-28T04:22:04;95584.34;;;14.00;58.12
24160;BME280;62385;41.594;23.808;2023-07-28T04:24:32;95598.28;;;14.17;58.71
24160;BME280;62385;41.594;23.808;2023-07-28T04:26:57;95610.97;;;14.51;57.22
24160;BME280;62385;41.594;23.808;2023-07-28T04:29:24;95631.38;;;14.58;57.06
24160;BME280;62385;41.594;23.808;2023-07-28T04:31:49;95631.81;;;14.62;57.16
24160;BME280;62385;41.594;23.808;2023-07-28T04:34:20;95625.84;;;14.60;56.31
24160;BME280;62385;41.594;23.808;2023-07-28T04:37:02;95630.06;;;14.33;57.83
24160;BME280;62385;41.594;23.808;2023-07-28T04:39:38;95626.44;;;14.55;57.38
24160;BME280;62385;41.594;23.808;2023-07-28T04:42:04;95631.03;;;14.89;55.28
24160;BME280;62385;41.594;23.808;2023-07-28T04:44:30;95624.75;;;14.75;56.40
24160;BME280;62385;41.594;23.808;2023-07-28T04:47:00;95639.19;;;14.81;56.91
24160;BME280;62385;41.594;23.808;2023-07-28T04:49:26;95637.66;;;14.93;58.03
24160;BME280;62385;41.594;23.808;2023-07-28T04:52:07;95624.09;;;14.95;56.55
24160;BME280;62385;41.594;23.808;2023-07-28T04:54:56;95634.28;;;15.12;55.50
24160;BME280;62385;41.594;23.808;2023-07-28T04:57:23;95621.16;;;15.17;55.16
24160;BME280;62385;41.594;23.808;2023-07-28T04:59:48;95617.50;;;15.25;55.14
24160;BME280;62385;41.594;23.808;2023-07-28T05:02:14;95637.19;;;15.45;54.84
24160;BME280;62385;41.594;23.808;2023-07-28T05:04:40;95623.25;;;15.50;53.71
24160;BME280;62385;41.594;23.808;2023-07-28T05:07:05;95632.34;;;15.62;54.34
24160;BME280;62385;41.594;23.808;2023-07-28T05:09:31;95631.16;;;15.37;56.30
24160;BME280;62385;41.594;23.808;2023-07-28T05:11:57;95637.09;;;15.60;56.58
24160;BME280;62385;41.594;23.808;2023-07-28T05:14:23;95643.44;;;15.52;56.23
24160;BME280;62385;41.594;23.808;2023-07-28T05:16:49;95628.94;;;15.40;57.59
24160;BME280;62385;41.594;23.808;2023-07-28T05:19:32;95627.41;;;15.52;57.70
24160;BME280;62385;41.594;23.808;2023-07-28T05:21:57;95616.19;;;15.42;56.74
24160;BME280;62385;41.594;23.808;2023-07-28T05:24:55;95626.59;;;15.58;57.00
24160;BME280;62385;41.594;23.808;2023-07-28T05:27:24;95623.66;;;15.53;57.32
24160;BME280;62385;41.594;23.808;2023-07-28T05:29:50;95614.00;;;15.52;56.98
24160;BME280;62385;41.594;23.808;2023-07-28T05:32:15;95627.06;;;15.68;56.62
24160;BME280;62385;41.594;23.808;2023-07-28T05:35:16;95616.56;;;15.74;55.58
24160;BME280;62385;41.594;23.808;2023-07-28T05:37:42;95632.00;;;15.72;55.92
24160;BME280;62385;41.594;23.808;2023-07-28T05:40:07;95622.03;;;15.93;55.36
24160;BME280;62385;41.594;23.808;2023-07-28T05:42:34;95630.66;;;15.95;54.37
24160;BME280;62385;41.594;23.808;2023-07-28T05:45:00;95628.38;;;15.86;54.61
24160;BME280;62385;41.594;23.808;2023-07-28T05:47:26;95628.25;;;16.13;54.33
24160;BME280;62385;41.594;23.808;2023-07-28T05:49:52;95624.81;;;16.33;54.14
24160;BME280;62385;41.594;23.808;2023-07-28T05:52:22;95614.94;;;16.46;53.70
24160;BME280;62385;41.594;23.808;2023-07-28T05:54:48;95606.03;;;16.26;53.76
24160;BME280;62385;41.594;23.808;2023-07-28T05:57:32;95624.81;;;16.33;53.31
24160;BME280;62385;41.594;23.808;2023-07-28T06:00:01;95612.88;;;16.35;52.32
24160;BME280;62385;41.594;23.808;2023-07-28T06:02:26;95611.09;;;16.75;51.50
24160;BME280;62385;41.594;23.808;2023-07-28T06:04:54;95620.72;;;16.50;51.70
24160;BME280;62385;41.594;23.808;2023-07-28T06:07:20;95616.66;;;16.87;51.29
24160;BME280;62385;41.594;23.808;2023-07-28T06:09:45;95612.94;;;17.07;50.19
24160;BME280;62385;41.594;23.808;2023-07-28T06:12:12;95620.34;;;16.99;49.66
24160;BME280;62385;41.594;23.808;2023-07-28T06:14:39;95603.66;;;16.84;49.37
24160;BME280;62385;41.594;23.808;2023-07-28T06:17:06;95616.22;;;17.16;49.54
24160;BME280;62385;41.594;23.808;2023-07-28T06:19:33;95615.19;;;17.30;48.90
24160;BME280;62385;41.594;23.808;2023-07-28T06:21:59;95616.00;;;17.37;49.68
24160;BME280;62385;41.594;23.808;2023-07-28T06:24:25;95615.50;;;17.73;48.87
24160;BME280;62385;41.594;23.808;2023-07-28T06:26:50;95606.63;;;17.73;48.10
24160;BME280;62385;41.594;23.808;2023-07-28T06:29:18;95611.50;;;17.89;47.90
24160;BME280;62385;41.594;23.808;2023-07-28T06:31:43;95600.31;;;18.05;47.07
24160;BME280;62385;41.594;23.808;2023-07-28T06:34:09;95600.81;;;17.82;45.34
24160;BME280;62385;41.594;23.808;2023-07-28T06:36:34;95597.25;;;17.95;45.48
24160;BME280;62385;41.594;23.808;2023-07-28T06:39:00;95599.16;;;17.81;45.17
24160;BME280;62385;41.594;23.808;2023-07-28T06:41:26;95604.72;;;17.93;45.14
24160;BME280;62385;41.594;23.808;2023-07-28T06:43:58;95600.50;;;18.04;45.82
24160;BME280;62385;41.594;23.808;2023-07-28T06:46:24;95604.34;;;18.21;45.30
24160;BME280;62385;41.594;23.808;2023-07-28T06:48:49;95593.63;;;18.14;45.17
24160;BME280;62385;41.594;23.808;2023-07-28T06:51:15;95597.41;;;18.07;44.77
24160;BME280;62385;41.594;23.808;2023-07-28T06:53:42;95582.47;;;18.17;44.13
24160;BME280;62385;41.594;23.808;2023-07-28T06:56:09;95596.78;;;18.42;45.35
24160;BME280;62385;41.594;23.808;2023-07-28T06:58:34;95590.47;;;18.62;44.14
24160;BME280;62385;41.594;23.808;2023-07-28T07:01:00;95592.16;;;18.18;43.88
24160;BME280;62385;41.594;23.808;2023-07-28T07:03:26;95583.19;;;18.37;42.99
24160;BME280;62385;41.594;23.808;2023-07-28T07:05:52;95594.03;;;18.56;42.39
24160;BME280;62385;41.594;23.808;2023-07-28T07:08:17;95592.47;;;18.41;42.81
24160;BME280;62385;41.594;23.808;2023-07-28T07:10:48;95580.94;;;18.66;43.69
24160;BME280;62385;41.594;23.808;2023-07-28T07:13:15;95585.22;;;18.98;42.67
24160;BME280;62385;41.594;23.808;2023-07-28T07:15:41;95572.84;;;19.15;42.37
24160;BME280;62385;41.594;23.808;2023-07-28T07:18:07;95592.91;;;19.19;43.43
24160;BME280;62385;41.594;23.808;2023-07-28T07:20:36;95578.31;;;19.27;42.00
24160;BME280;62385;41.594;23.808;2023-07-28T07:23:04;95588.28;;;19.26;41.75
24160;BME280;62385;41.594;23.808;2023-07-28T07:25:30;95585.44;;;19.46;41.88
24160;BME280;62385;41.594;23.808;2023-07-28T07:27:57;95582.19;;;19.56;42.55
24160;BME280;62385;41.594;23.808;2023-07-28T07:30:22;95576.94;;;19.43;40.86
24160;BME280;62385;41.594;23.808;2023-07-28T07:32:48;95553.50;;;19.50;40.98
24160;BME280;62385;41.594;23.808;2023-07-28T07:35:14;95563.75;;;19.16;40.35
24160;BME280;62385;41.594;23.808;2023-07-28T07:37:39;95571.91;;;19.71;41.06
24160;BME280;62385;41.594;23.808;2023-07-28T07:40:06;95570.25;;;19.70;40.24
24160;BME280;62385;41.594;23.808;2023-07-28T07:42:48;95561.53;;;19.86;40.44
24160;BME280;62385;41.594;23.808;2023-07-28T07:45:15;95557.06;;;19.62;40.68
24160;BME280;62385;41.594;23.808;2023-07-28T07:47:41;95562.91;;;19.77;40.48
24160;BME280;62385;41.594;23.808;2023-07-28T07:50:08;95539.31;;;19.72;41.53
24160;BME280;62385;41.594;23.808;2023-07-28T07:52:35;95553.34;;;20.11;40.24
24160;BME280;62385;41.594;23.808;2023-07-28T07:55:03;95552.69;;;19.97;40.78
24160;BME280;62385;41.594;23.808;2023-07-28T07:57:29;95550.00;;;20.27;40.04
24160;BME280;62385;41.594;23.808;2023-07-28T07:59:58;95544.53;;;20.04;40.53
24160;BME280;62385;41.594;23.808;2023-07-28T08:02:24;95550.75;;;20.34;40.34
24160;BME280;62385;41.594;23.808;2023-07-28T08:04:51;95550.34;;;20.49;40.41
24160;BME280;62385;41.594;23.808;2023-07-28T08:07:19;95539.88;;;20.11;41.23
24160;BME280;62385;41.594;23.808;2023-07-28T08:09:44;95534.53;;;20.52;41.16
24160;BME280;62385;41.594;23.808;2023-07-28T08:12:11;95548.38;;;20.56;40.45
24160;BME280;62385;41.594;23.808;2023-07-28T08:14:37;95538.81;;;20.95;40.11
24160;BME280;62385;41.594;23.808;2023-07-28T08:17:04;95527.91;;;21.13;40.58
24160;BME280;62385;41.594;23.808;2023-07-28T08:19:30;95541.41;;;21.25;39.29
24160;BME280;62385;41.594;23.808;2023-07-28T08:21:55;95545.63;;;21.21;38.23
24160;BME280;62385;41.594;23.808;2023-07-28T08:24:21;95526.84;;;21.26;39.15
24160;BME280;62385;41.594;23.808;2023-07-28T08:26:47;95529.34;;;21.27;37.60
24160;BME280;62385;41.594;23.808;2023-07-28T08:29:12;95543.19;;;21.31;37.26
24160;BME280;62385;41.594;23.808;2023-07-28T08:31:39;95529.28;;;21.50;36.90
24160;BME280;62385;41.594;23.808;2023-07-28T08:34:04;95525.41;;;21.70;37.32
24160;BME280;62385;41.594;23.808;2023-07-28T08:36:30;95522.25;;;21.49;37.68
24160;BME280;62385;41.594;23.808;2023-07-28T08:38:55;95513.47;;;21.94;37.43
24160;BME280;62385;41.594;23.808;2023-07-28T08:41:22;95515.16;;;22.12;38.15
24160;BME280;62385;41.594;23.808;2023-07-28T08:43:48;95496.13;;;22.35;35.75
24160;BME280;62385;41.594;23.808;2023-07-28T08:46:16;95506.22;;;22.39;35.00
24160;BME280;62385;41.594;23.808;2023-07-28T08:48:42;95499.00;;;22.62;34.41
24160;BME280;62385;41.594;23.808;2023-07-28T08:51:09;95486.16;;;22.52;35.61
24160;BME280;62385;41.594;23.808;2023-07-28T08:53:35;95481.72;;;22.63;34.47
24160;BME280;62385;41.594;23.808;2023-07-28T08:56:01;95477.75;;;22.37;36.22
24160;BME280;62385;41.594;23.808;2023-07-28T08:58:26;95476.41;;;22.84;35.80
24160;BME280;62385;41.594;23.808;2023-07-28T09:00:52;95450.28;;;22.73;34.80
24160;BME280;62385;41.594;23.808;2023-07-28T09:03:18;95474.75;;;23.00;33.76
24160;BME280;62385;41.594;23.808;2023-07-28T09:05:45;95481.59;;;22.69;34.54
24160;BME280;62385;41.594;23.808;2023-07-28T09:08:15;95474.84;;;23.05;36.71
24160;BME280;62385;41.594;23.808;2023-07-28T09:10:48;95472.97;;;22.89;34.74
24160;BME280;62385;41.594;23.808;2023-07-28T09:13:17;95468.44;;;22.78;34.46
24160;BME280;62385;41.594;23.808;2023-07-28T09:15:43;95456.69;;;23.06;36.76
24160;BME280;62385;41.594;23.808;2023-07-28T09:18:17;95465.13;;;23.26;34.55
24160;BME280;62385;41.594;23.808;2023-07-28T09:20:43;95447.06;;;23.53;34.31
24160;BME280;62385;41.594;23.808;2023-07-28T09:23:10;95451.66;;;23.74;34.37
24160;BME280;62385;41.594;23.808;2023-07-28T09:25:37;95455.34;;;23.63;34.65
24160;BME280;62385;41.594;23.808;2023-07-28T09:28:03;95451.94;;;24.00;33.59
24160;BME280;62385;41.594;23.808;2023-07-28T09:30:49;95447.06;;;23.53;34.73
24160;BME280;62385;41.594;23.808;2023-07-28T09:33:35;95442.22;;;23.55;33.76
24160;BME280;62385;41.594;23.808;2023-07-28T09:36:12;95452.34;;;23.86;33.68
24160;BME280;62385;41.594;23.808;2023-07-28T09:38:40;95440.13;;;24.11;34.05
24160;BME280;62385;41.594;23.808;2023-07-28T09:41:10;95444.66;;;24.27;32.96
24160;BME280;62385;41.594;23.808;2023-07-28T09:43:37;95434.72;;;24.38;32.90
24160;BME280;62385;41.594;23.808;2023-07-28T09:46:04;95438.81;;;24.13;31.34
24160;BME280;62385;41.594;23.808;2023-07-28T09:48:32;95425.72;;;24.10;34.26
24160;BME280;62385;41.594;23.808;2023-07-28T09:51:02;95433.59;;;24.33;32.51
24160;BME280;62385;41.594;23.808;2023-07-28T09:53:33;95418.91;;;24.61;31.05
24160;BME280;62385;41.594;23.808;2023-07-28T09:56:01;95428.03;;;24.50;31.59
24160;BME280;62385;41.594;23.808;2023-07-28T09:58:33;95423.28;;;24.67;30.53
24160;BME280;62385;41.594;23.808;2023-07-28T10:01:03;95418.06;;;24.61;31.59
24160;BME280;62385;41.594;23.808;2023-07-28T10:03:32;95409.31;;;24.86;30.96
24160;BME280;62385;41.594;23.808;2023-07-28T10:05:58;95414.38;;;25.09;31.10
24160;BME280;62385;41.594;23.808;2023-07-28T10:08:24;95399.56;;;24.90;32.21
24160;BME280;62385;41.594;23.808;2023-07-28T10:10:51;95402.72;;;25.18;29.87
24160;BME280;62385;41.594;23.808;2023-07-28T10:13:22;95401.66;;;25.19;30.78
24160;BME280;62385;41.594;23.808;2023-07-28T10:15:48;95403.06;;;25.32;31.95
24160;BME280;62385;41.594;23.808;2023-07-28T10:18:14;95388.91;;;25.25;32.46
24160;BME280;62385;41.594;23.808;2023-07-28T10:20:42;95395.78;;;25.38;33.18
24160;BME280;62385;41.594;23.808;2023-07-28T10:23:17;95374.75;;;25.23;33.14
24160;BME280;62385;41.594;23.808;2023-07-28T10:25:44;95387.72;;;25.06;31.68
24160;BME280;62385;41.594;23.808;2023-07-28T10:28:26;95374.84;;;25.43;33.13
24160;BME280;62385;41.594;23.808;2023-07-28T10:30:54;95370.88;;;25.61;31.76
24160;BME280;62385;41.594;23.808;2023-07-28T10:33:31;95369.72;;;25.47;33.20
24160;BME280;62385;41.594;23.808;2023-07-28T10:39:14;95345.34;;;25.77;30.60
24160;BME280;62385;41.594;23.808;2023-07-28T10:44:25;95334.50;;;25.87;32.00
24160;BME280;62385;41.594;23.808;2023-07-28T10:46:50;95340.50;;;26.04;32.82
24160;BME280;62385;41.594;23.808;2023-07-28T10:49:17;95325.81;;;26.15;33.24
24160;BME280;62385;41.594;23.808;2023-07-28T10:51:42;95324.16;;;26.09;32.04
24160;BME280;62385;41.594;23.808;2023-07-28T10:54:08;95323.91;;;26.26;32.44
24160;BME280;62385;41.594;23.808;2023-07-28T10:56:33;95335.38;;;26.33;32.64
24160;BME280;62385;41.594;23.808;2023-07-28T10:59:02;95330.44;;;26.55;32.90
24160;BME280;62385;41.594;23.808;2023-07-28T11:01:38;95315.47;;;26.53;33.75
24160;BME280;62385;41.594;23.808;2023-07-28T11:04:11;95320.09;;;26.52;32.44
24160;BME280;62385;41.594;23.808;2023-07-28T11:06:40;95312.84;;;27.17;33.10
24160;BME280;62385;41.594;23.808;2023-07-28T11:09:08;95322.09;;;27.21;32.13
24160;BME280;62385;41.594;23.808;2023-07-28T11:11:35;95318.16;;;26.78;30.78
24160;BME280;62385;41.594;23.808;2023-07-28T11:14:02;95323.34;;;26.59;31.52
24160;BME280;62385;41.594;23.808;2023-07-28T11:16:30;95320.88;;;26.73;31.44
24160;BME280;62385;41.594;23.808;2023-07-28T11:19:03;95307.84;;;26.35;31.79
24160;BME280;62385;41.594;23.808;2023-07-28T11:21:29;95300.81;;;26.34;30.79
24160;BME280;62385;41.594;23.808;2023-07-28T11:23:55;95302.94;;;26.52;31.06
24160;BME280;62385;41.594;23.808;2023-07-28T11:26:22;95301.22;;;26.96;32.35
24160;BME280;62385;41.594;23.808;2023-07-28T11:28:48;95291.84;;;27.23;33.48
24160;BME280;62385;41.594;23.808;2023-07-28T11:31:14;95289.03;;;27.53;31.86
24160;BME280;62385;41.594;23.808;2023-07-28T11:33:39;95278.59;;;27.01;31.02
24160;BME280;62385;41.594;23.808;2023-07-28T11:36:06;95286.31;;;27.43;30.78
24160;BME280;62385;41.594;23.808;2023-07-28T11:38:32;95281.44;;;27.35;31.48
24160;BME280;62385;41.594;23.808;2023-07-28T11:40:59;95271.38;;;27.79;30.56
24160;BME280;62385;41.594;23.808;2023-07-28T11:43:25;95278.19;;;27.82;30.90
24160;BME280;62385;41.594;23.808;2023-07-28T11:45:52;95277.25;;;27.96;30.34
24160;BME280;62385;41.594;23.808;2023-07-28T11:48:17;95265.97;;;28.08;31.26
24160;BME280;62385;41.594;23.808;2023-07-28T11:50:43;95271.63;;;28.51;32.49
24160;BME280;62385;41.594;23.808;2023-07-28T11:53:10;95269.22;;;28.15;31.48
24160;BME280;62385;41.594;23.808;2023-07-28T11:55:37;95278.78;;;28.13;31.99
24160;BME280;62385;41.594;23.808;2023-07-28T11:58:04;95266.97;;;28.51;32.06
24160;BME280;62385;41.594;23.808;2023-07-28T12:00:31;95266.50;;;28.44;31.15
24160;BME280;62385;41.594;23.808;2023-07-28T12:03:11;95259.34;;;27.85;30.01
24160;BME280;62385;41.594;23.808;2023-07-28T12:05:41;95258.72;;;27.93;30.01
24160;BME280;62385;41.594;23.808;2023-07-28T12:08:34;95250.59;;;28.51;29.61
24160;BME280;62385;41.594;23.808;2023-07-28T12:10:59;95247.06;;;28.45;27.23
24160;BME280;62385;41.594;23.808;2023-07-28T12:13:25;95249.38;;;28.33;27.71
24160;BME280;62385;41.594;23.808;2023-07-28T12:15:52;95241.63;;;27.83;28.44
24160;BME280;62385;41.594;23.808;2023-07-28T12:18:17;95237.88;;;28.08;27.97
24160;BME280;62385;41.594;23.808;2023-07-28T12:20:46;95236.56;;;28.58;29.70
24160;BME280;62385;41.594;23.808;2023-07-28T12:23:14;95226.41;;;28.39;28.51
24160;BME280;62385;41.594;23.808;2023-07-28T12:25:41;95229.59;;;28.47;28.09
24160;BME280;62385;41.594;23.808;2023-07-28T12:28:07;95223.03;;;28.76;28.57
24160;BME280;62385;41.594;23.808;2023-07-28T12:30:33;95223.09;;;29.14;27.33
24160;BME280;62385;41.594;23.808;2023-07-28T12:32:59;95221.28;;;28.85;27.32
24160;BME280;62385;41.594;23.808;2023-07-28T12:35:26;95220.88;;;29.16;27.01
24160;BME280;62385;41.594;23.808;2023-07-28T12:37:57;95216.13;;;29.45;25.41
24160;BME280;62385;41.594;23.808;2023-07-28T12:40:26;95219.09;;;29.67;26.57
24160;BME280;62385;41.594;23.808;2023-07-28T12:42:53;95216.19;;;29.96;25.72
24160;BME280;62385;41.594;23.808;2023-07-28T12:45:19;95208.16;;;30.18;25.74
24160;BME280;62385;41.594;23.808;2023-07-28T12:48:03;95200.28;;;29.98;25.09
24160;BME280;62385;41.594;23.808;2023-07-28T12:50:31;95215.25;;;29.68;24.19
24160;BME280;62385;41.594;23.808;2023-07-28T12:52:56;95217.25;;;29.63;24.92
24160;BME280;62385;41.594;23.808;2023-07-28T12:55:22;95208.72;;;29.83;26.04
24160;BME280;62385;41.594;23.808;2023-07-28T12:57:47;95198.91;;;30.14;24.14
24160;BME280;62385;41.594;23.808;2023-07-28T13:00:16;95196.59;;;29.89;24.17
24160;BME280;62385;41.594;23.808;2023-07-28T13:02:45;95208.03;;;30.23;24.93
24160;BME280;62385;41.594;23.808;2023-07-28T13:05:12;95194.03;;;30.57;23.92